createdAt,value
2022-08-10T00:01:34.483Z,95122.69
2022-08-10T00:04:02.227Z,95128.00
2022-08-10T00:06:29.184Z,95119.97
2022-08-10T00:08:55.859Z,95109.22
2022-08-10T00:11:22.880Z,95110.31
2022-08-10T00:13:49.747Z,95121.06
2022-08-10T00:16:16.483Z,95108.06
2022-08-10T00:18:43.231Z,95107.84
2022-08-10T00:21:11.032Z,95104.81
2022-08-10T00:23:38.440Z,95111.81
2022-08-10T00:26:06.748Z,95096.78
2022-08-10T00:28:33.552Z,95110.84
2022-08-10T00:31:00.227Z,95109.09
2022-08-10T00:33:26.974Z,95111.06
2022-08-10T00:35:53.657Z,95110.72
2022-08-10T00:38:20.525Z,95111.75
2022-08-10T00:40:47.234Z,95111.84
2022-08-10T00:43:13.898Z,95104.81
2022-08-10T00:45:40.660Z,95117.38
2022-08-10T00:48:07.341Z,95118.09
2022-08-10T00:50:34.467Z,95119.31
2022-08-10T00:53:01.782Z,95106.56
2022-08-10T00:55:28.887Z,95123.28
2022-08-10T00:57:56.250Z,95116.53
2022-08-10T01:00:24.102Z,95119.41
2022-08-10T01:02:50.849Z,95129.16
2022-08-10T01:05:20.185Z,95125.34
2022-08-10T01:08:19.698Z,95137.53
2022-08-10T01:10:58.463Z,95133.75
2022-08-10T01:13:33.621Z,95130.19
2022-08-10T01:16:18.402Z,95111.28
2022-08-10T01:18:47.714Z,95121.72
2022-08-10T01:21:26.743Z,95122.59
2022-08-10T01:24:16.927Z,95127.16
2022-08-10T01:27:13.571Z,95124.66
2022-08-10T01:30:20.040Z,95121.91
2022-08-10T01:32:51.598Z,95125.97
2022-08-10T01:35:41.373Z,95125.13
2022-08-10T01:38:37.522Z,95122.06
2022-08-10T01:41:12.061Z,95126.31
2022-08-10T01:43:54.402Z,95119.00
2022-08-10T01:46:24.402Z,95123.50
2022-08-10T01:48:57.061Z,95129.56
2022-08-10T01:51:37.468Z,95120.53
2022-08-10T01:54:12.592Z,95119.53
2022-08-10T01:56:44.168Z,95114.13
2022-08-10T01:59:19.828Z,95108.59
2022-08-10T02:01:53.682Z,95111.56
2022-08-10T02:04:21.626Z,95105.56
2022-08-10T02:06:53.259Z,95100.53
2022-08-10T02:09:34.508Z,95110.28
2022-08-10T02:12:08.965Z,95108.53
2022-08-10T02:14:45.012Z,95113.47
2022-08-10T02:17:58.637Z,95119.19
2022-08-10T02:20:31.460Z,95123.91
2022-08-10T02:23:02.449Z,95117.63
2022-08-10T02:25:41.066Z,95113.81
2022-08-10T02:28:12.412Z,95107.38
2022-08-10T02:30:57.636Z,95121.09
2022-08-10T02:33:27.724Z,95105.91
2022-08-10T02:35:56.158Z,95112.91
2022-08-10T02:38:59.559Z,95123.78
2022-08-10T02:45:15.846Z,95123.09
2022-08-10T02:45:21.462Z,95122.41
2022-08-10T02:47:22.224Z,95115.97
2022-08-10T02:50:02.283Z,95114.56
2022-08-10T02:52:38.798Z,95122.69
2022-08-10T02:55:18.103Z,95126.53
2022-08-10T02:58:13.327Z,95125.06
2022-08-10T03:00:46.578Z,95129.13
2022-08-10T03:03:20.182Z,95125.41
2022-08-10T03:05:51.122Z,95122.19
2022-08-10T03:08:21.360Z,95128.22
2022-08-10T03:10:49.634Z,95133.50
2022-08-10T03:13:18.756Z,95135.34
2022-08-10T03:15:46.887Z,95136.06
2022-08-10T03:18:14.290Z,95110.03
2022-08-10T03:20:42.976Z,95130.63
2022-08-10T03:23:16.390Z,95134.88
2022-08-10T03:25:53.578Z,95123.38
2022-08-10T03:28:26.988Z,95132.19
2022-08-10T03:30:54.823Z,95136.00
2022-08-10T03:33:22.777Z,95140.47
2022-08-10T03:36:41.783Z,95137.19
2022-08-10T03:38:40.451Z,95125.91
2022-08-10T03:41:11.516Z,95141.44
2022-08-10T03:43:46.447Z,95147.75
2022-08-10T03:46:15.425Z,95138.28
2022-08-10T03:48:49.465Z,95145.03
2022-08-10T03:51:18.765Z,95154.09
2022-08-10T03:54:05.557Z,95159.44
2022-08-10T03:56:34.780Z,95144.09
2022-08-10T03:59:02.145Z,95157.91
2022-08-10T04:02:47.140Z,95148.66
2022-08-10T04:04:23.293Z,95150.84
2022-08-10T04:06:54.700Z,95156.81
2022-08-10T04:09:22.791Z,95152.25
2022-08-10T04:11:49.534Z,95162.28
2022-08-10T04:14:38.370Z,95160.53
2022-08-10T04:17:02.793Z,95162.75
2022-08-10T04:19:35.470Z,95159.47
2022-08-10T04:22:10.277Z,95169.72
2022-08-10T04:24:39.066Z,95163.72
2022-08-10T04:27:05.944Z,95157.13
2022-08-10T04:29:32.644Z,95162.06
2022-08-10T04:32:01.421Z,95160.78
2022-08-10T04:34:31.930Z,95160.44
2022-08-10T04:37:05.437Z,95161.09
2022-08-10T04:39:35.078Z,95160.78
2022-08-10T04:42:01.976Z,95149.91
2022-08-10T04:44:28.740Z,95173.53
2022-08-10T04:46:58.329Z,95162.78
2022-08-10T04:49:56.484Z,95171.63
2022-08-10T04:52:13.345Z,95173.91
2022-08-10T04:54:40.239Z,95174.94
2022-08-10T04:57:09.032Z,95173.72
2022-08-10T04:59:35.874Z,95175.13
2022-08-10T05:02:29.516Z,95175.66
2022-08-10T05:04:49.270Z,95174.69
2022-08-10T05:07:18.230Z,95174.84
2022-08-10T05:10:04.588Z,95171.03
2022-08-10T05:12:38.802Z,95176.13
2022-08-10T05:15:11.708Z,95175.53
2022-08-10T05:17:39.695Z,95172.38
2022-08-10T05:20:08.694Z,95171.63
2022-08-10T05:22:43.244Z,95174.72
2022-08-10T05:25:16.091Z,95179.22
2022-08-10T05:27:44.852Z,95170.78
2022-08-10T05:30:19.781Z,95171.91
2022-08-10T05:32:56.036Z,95172.59
2022-08-10T05:35:27.353Z,95183.19
2022-08-10T05:38:09.086Z,95170.47
2022-08-10T05:40:42.704Z,95178.22
2022-08-10T05:43:18.362Z,95176.41
2022-08-10T05:46:17.288Z,95175.63
2022-08-10T05:48:41.845Z,95181.66
2022-08-10T05:51:20.748Z,95169.44
2022-08-10T05:54:02.155Z,95177.97
2022-08-10T05:56:54.970Z,95172.00
2022-08-10T06:00:29.376Z,95170.66
2022-08-10T06:02:41.784Z,95184.63
2022-08-10T06:05:11.700Z,95186.25
2022-08-10T06:07:42.676Z,95187.97
2022-08-10T06:10:12.973Z,95186.59
2022-08-10T06:12:55.179Z,95184.34
2022-08-10T06:15:50.205Z,95182.94
2022-08-10T06:18:13.848Z,95181.22
2022-08-10T06:20:41.658Z,95158.63
2022-08-10T06:23:08.550Z,95178.91
2022-08-10T06:26:11.038Z,95174.84
2022-08-10T06:28:23.260Z,95170.47
2022-08-10T06:30:52.221Z,95177.69
2022-08-10T06:33:21.283Z,95190.75
2022-08-10T06:35:53.788Z,95195.47
2022-08-10T06:38:23.622Z,95193.63
2022-08-10T06:40:53.547Z,95189.53
2022-08-10T06:43:23.689Z,95193.28
2022-08-10T06:46:06.828Z,95197.25
2022-08-10T06:48:37.920Z,95186.97
2022-08-10T06:51:14.312Z,95187.81
2022-08-10T06:53:53.846Z,95186.22
2022-08-10T06:56:36.094Z,95187.03
2022-08-10T06:59:27.063Z,95187.66
2022-08-10T07:01:59.688Z,95183.19
2022-08-10T07:04:43.607Z,95178.56
2022-08-10T07:07:18.684Z,95183.94
2022-08-10T07:09:47.082Z,95165.13
2022-08-10T07:12:15.473Z,95179.69
2022-08-10T07:14:45.524Z,95175.78
2022-08-10T07:17:19.074Z,95165.69
2022-08-10T07:19:52.228Z,95169.44
2022-08-10T07:23:22.897Z,95176.13
2022-08-10T07:25:15.080Z,95163.69
2022-08-10T07:28:00.815Z,95178.00
2022-08-10T07:30:31.626Z,95177.75
2022-08-10T07:33:00.469Z,95182.00
2022-08-10T07:35:34.652Z,95183.97
2022-08-10T07:38:07.584Z,95175.56
2022-08-10T07:40:35.426Z,95174.84
2022-08-10T07:43:02.866Z,95161.44
2022-08-10T07:45:32.856Z,95171.47
2022-08-10T07:48:07.934Z,95161.97
2022-08-10T07:50:38.090Z,95178.50
2022-08-10T07:53:07.207Z,95172.72
2022-08-10T07:56:05.506Z,95175.19
2022-08-10T07:58:28.636Z,95168.81
2022-08-10T08:00:57.478Z,95175.13
2022-08-10T08:03:27.441Z,95167.84
2022-08-10T08:06:03.335Z,95163.91
2022-08-10T08:08:33.457Z,95166.97
2022-08-10T08:11:01.440Z,95168.00
2022-08-10T08:13:29.614Z,95169.16
2022-08-10T08:16:19.149Z,95163.78
2022-08-10T08:18:58.310Z,95154.06
2022-08-10T08:24:10.410Z,95156.81
2022-08-10T08:24:32.704Z,95146.09
2022-08-10T08:27:03.044Z,95161.50
2022-08-10T08:29:34.123Z,95153.75
2022-08-10T08:32:03.725Z,95148.38
2022-08-10T08:34:32.670Z,95153.66
2022-08-10T08:37:01.111Z,95146.16
2022-08-10T08:39:28.437Z,95152.84
2022-08-10T08:42:14.182Z,95152.78
2022-08-10T08:44:55.965Z,95143.25
2022-08-10T08:48:04.190Z,95142.31
2022-08-10T08:50:53.963Z,95134.19
2022-08-10T08:54:06.307Z,95132.19
2022-08-10T08:56:58.503Z,95141.94
2022-08-10T08:59:44.276Z,95139.13
2022-08-10T09:02:22.547Z,95140.00
2022-08-10T09:05:14.929Z,95131.38
2022-08-10T09:08:10.458Z,95133.75
2022-08-10T09:11:08.632Z,95133.03
2022-08-10T09:13:43.565Z,95139.84
2022-08-10T09:16:28.912Z,95131.00
2022-08-10T09:19:35.371Z,95133.25
2022-08-10T09:22:42.884Z,95132.56
2022-08-10T09:25:16.977Z,95137.16
2022-08-10T09:27:49.575Z,95130.94
2022-08-10T09:30:32.170Z,95131.91
2022-08-10T09:36:24.974Z,95125.63
2022-08-10T09:36:29.912Z,95124.56
2022-08-10T09:40:12.315Z,95119.84
2022-08-10T09:43:24.860Z,95127.53
2022-08-10T09:46:11.898Z,95113.47
2022-08-10T09:49:25.823Z,95121.94
2022-08-10T09:52:09.659Z,95109.97
2022-08-10T09:54:51.193Z,95109.91
2022-08-10T09:57:43.400Z,95113.59
2022-08-10T10:00:16.566Z,95116.22
2022-08-10T10:02:44.033Z,95102.81
2022-08-10T10:05:31.081Z,95097.84
2022-08-10T10:08:17.860Z,95111.72
2022-08-10T10:11:02.551Z,95123.41
2022-08-10T10:13:44.743Z,95097.94
2022-08-10T10:16:52.245Z,95108.50
2022-08-10T10:19:43.240Z,95108.16
2022-08-10T10:22:37.988Z,95104.19
2022-08-10T10:25:50.252Z,95090.13
2022-08-10T10:28:51.329Z,95114.81
2022-08-10T10:31:37.537Z,95111.03
2022-08-10T10:34:10.103Z,95076.56
2022-08-10T10:36:40.016Z,95109.91
2022-08-10T10:39:07.769Z,95102.81
2022-08-10T10:42:42.331Z,95081.66
2022-08-10T10:45:50.567Z,95100.31
2022-08-10T10:48:24.157Z,95089.31
2022-08-10T10:51:34.169Z,95089.00
2022-08-10T10:54:24.741Z,95081.03
2022-08-10T10:57:17.505Z,95089.84
2022-08-10T10:59:55.016Z,95063.84
2022-08-10T11:02:45.574Z,95082.31
2022-08-10T11:05:52.891Z,95078.78
2022-08-10T11:08:47.856Z,95069.31
2022-08-10T11:12:00.529Z,95082.69
2022-08-10T11:14:33.211Z,95088.22
2022-08-10T11:17:14.747Z,95077.53
2022-08-10T11:20:02.817Z,95087.81
2022-08-10T11:22:46.371Z,95083.84
2022-08-10T11:25:33.055Z,95075.28
2022-08-10T11:28:26.090Z,95065.28
2022-08-10T11:31:01.685Z,95063.59
2022-08-10T11:34:03.920Z,95084.47
2022-08-10T11:36:51.437Z,95063.78
2022-08-10T11:39:33.158Z,95065.28
2022-08-10T11:42:33.219Z,95063.63
2022-08-10T11:45:22.299Z,95036.66
2022-08-10T11:47:53.300Z,95042.09
2022-08-10T11:50:34.866Z,95034.06
2022-08-10T11:53:19.958Z,95048.19
2022-08-10T11:55:54.131Z,95056.19
2022-08-10T11:58:41.434Z,95054.31
2022-08-10T12:01:13.487Z,95065.34
2022-08-10T12:03:42.748Z,95070.78
2022-08-10T12:06:15.487Z,95068.53
2022-08-10T12:10:09.588Z,95075.63
2022-08-10T12:11:31.162Z,95082.47
2022-08-10T12:14:23.385Z,95108.19
2022-08-10T12:17:05.507Z,95107.59
2022-08-10T12:19:59.857Z,95108.59
2022-08-10T12:22:34.253Z,95104.25
2022-08-10T12:25:08.633Z,95106.38
2022-08-10T12:27:54.825Z,95110.09
2022-08-10T12:30:36.173Z,95103.16
2022-08-10T12:34:01.336Z,95098.34
2022-08-10T12:36:36.624Z,95090.09
2022-08-10T12:39:25.302Z,95077.47
2022-08-10T12:42:00.396Z,95063.22
2022-08-10T12:44:57.739Z,95067.66
2022-08-10T12:47:44.931Z,95046.34
2022-08-10T12:50:37.654Z,95056.03
2022-08-10T12:53:17.524Z,95045.69
2022-08-10T12:55:45.779Z,95052.53
2022-08-10T12:58:57.324Z,95046.09
2022-08-10T13:01:16.738Z,95054.69
2022-08-10T13:04:20.822Z,95047.47
2022-08-10T13:06:36.938Z,95056.91
2022-08-10T13:09:09.738Z,95047.44
2022-08-10T13:12:35.530Z,95048.41
2022-08-10T13:14:47.637Z,95034.75
2022-08-10T13:17:21.252Z,95032.53
2022-08-10T13:19:55.230Z,95045.16
2022-08-10T13:22:27.185Z,95042.25
2022-08-10T13:24:58.583Z,95048.56
2022-08-10T13:28:00.840Z,95049.66
2022-08-10T13:30:19.648Z,95047.31
2022-08-10T13:33:05.837Z,95047.94
2022-08-10T13:35:33.903Z,95045.34
2022-08-10T13:38:02.932Z,95059.50
2022-08-10T13:40:32.229Z,95059.34
2022-08-10T13:43:01.797Z,95063.81
2022-08-10T13:45:29.428Z,95046.22
2022-08-10T13:48:21.664Z,95053.44
2022-08-10T13:50:52.201Z,95058.78
2022-08-10T13:53:19.714Z,95066.88
2022-08-10T13:55:55.320Z,95068.16
2022-08-10T13:58:44.544Z,95074.03
2022-08-10T14:01:16.399Z,95071.91
2022-08-10T14:03:44.328Z,95083.72
2022-08-10T14:06:14.061Z,95088.41
2022-08-10T14:08:48.247Z,95091.63
2022-08-10T14:11:18.334Z,95091.91
2022-08-10T14:13:58.204Z,95075.34
2022-08-10T14:16:25.774Z,95104.88
2022-08-10T14:18:54.891Z,95079.81
2022-08-10T14:21:22.327Z,95097.53
2022-08-10T14:23:53.122Z,95107.25
2022-08-10T14:26:30.784Z,95111.13
2022-08-10T14:29:05.537Z,95109.75
2022-08-10T14:31:34.940Z,95113.28
2022-08-10T14:34:05.003Z,95108.06
2022-08-10T14:36:53.272Z,95115.22
2022-08-10T14:39:25.237Z,95119.25
2022-08-10T14:42:03.001Z,95122.63
2022-08-10T14:45:01.994Z,95131.56
2022-08-10T14:47:53.791Z,95135.91
2022-08-10T14:50:32.417Z,95131.97
2022-08-10T14:53:09.499Z,95131.53
2022-08-10T14:55:58.996Z,95138.19
2022-08-10T14:58:38.862Z,95120.91
2022-08-10T15:01:25.484Z,95115.09
2022-08-10T15:04:02.251Z,95118.03
2022-08-10T15:06:37.858Z,95138.41
2022-08-10T15:09:19.125Z,95139.38
2022-08-10T15:12:14.922Z,95143.63
2022-08-10T15:14:42.514Z,95148.63
2022-08-10T15:17:14.288Z,95132.34
2022-08-10T15:20:02.352Z,95142.03
2022-08-10T15:22:38.104Z,95136.03
2022-08-10T15:25:18.290Z,95158.56
2022-08-10T15:27:54.623Z,95113.09
2022-08-10T15:30:29.969Z,95137.06
2022-08-10T15:33:57.510Z,95163.81
2022-08-10T15:36:32.945Z,95147.31
2022-08-10T15:39:02.953Z,95160.31
2022-08-10T15:41:57.459Z,95155.06
2022-08-10T15:44:49.903Z,95149.56
2022-08-10T15:47:46.131Z,95156.06
2022-08-10T15:50:19.937Z,95155.53
2022-08-10T15:53:00.683Z,95153.06
2022-08-10T15:55:45.802Z,95138.78
2022-08-10T15:58:38.982Z,95149.31
2022-08-10T16:02:14.761Z,95133.53
2022-08-10T16:04:37.689Z,95137.81
2022-08-10T16:07:16.471Z,95144.31
2022-08-10T16:10:24.033Z,95152.16
2022-08-10T16:12:44.757Z,95151.16
2022-08-10T16:15:29.138Z,95143.63
2022-08-10T16:18:08.957Z,95147.13
2022-08-10T16:20:54.576Z,95150.09
2022-08-10T16:23:35.113Z,95158.63
2022-08-10T16:26:14.961Z,95150.09
2022-08-10T16:28:51.570Z,95142.09
2022-08-10T16:31:21.510Z,95122.06
2022-08-10T16:33:53.468Z,95151.06
2022-08-10T16:36:22.152Z,95155.84
2022-08-10T16:38:50.766Z,95147.84
2022-08-10T16:42:03.355Z,95168.66
2022-08-10T16:44:10.875Z,95161.09
2022-08-10T16:46:43.738Z,95168.88
2022-08-10T16:49:12.787Z,95160.09
2022-08-10T16:51:41.213Z,95164.16
2022-08-10T16:54:12.562Z,95160.88
2022-08-10T16:56:48.589Z,95158.63
2022-08-10T16:59:21.010Z,95158.66
2022-08-10T17:01:54.226Z,95169.97
2022-08-10T17:04:23.598Z,95178.75
2022-08-10T17:07:08.216Z,95157.47
2022-08-10T17:09:37.373Z,95168.22
2022-08-10T17:12:13.373Z,95168.25
2022-08-10T17:14:41.852Z,95182.03
2022-08-10T17:17:12.587Z,95176.75
2022-08-10T17:19:47.492Z,95178.75
2022-08-10T17:22:19.009Z,95188.06
2022-08-10T17:25:12.973Z,95184.03
2022-08-10T17:28:03.924Z,95199.84
2022-08-10T17:30:35.370Z,95193.03
2022-08-10T17:33:20.159Z,95194.56
2022-08-10T17:35:49.549Z,95197.84
2022-08-10T17:38:20.945Z,95195.56
2022-08-10T17:40:50.968Z,95196.28
2022-08-10T17:43:58.372Z,95195.31
2022-08-10T17:46:12.558Z,95195.06
2022-08-10T17:48:41.910Z,95196.56
2022-08-10T17:51:12.528Z,95188.53
2022-08-10T17:53:47.104Z,95190.31
2022-08-10T17:56:15.661Z,95185.28
2022-08-10T17:58:51.139Z,95182.78
2022-08-10T18:01:41.239Z,95153.50
2022-08-10T18:04:14.393Z,95179.97
2022-08-10T18:06:43.368Z,95194.53
2022-08-10T18:09:18.696Z,95200.81
2022-08-10T18:11:49.580Z,95205.56
2022-08-10T18:14:19.385Z,95210.34
2022-08-10T18:16:49.142Z,95209.06
2022-08-10T18:19:18.048Z,95208.09
2022-08-10T18:21:47.289Z,95214.34
2022-08-10T18:24:21.529Z,95208.06
2022-08-10T18:26:51.073Z,95215.06
2022-08-10T18:29:29.940Z,95220.31
2022-08-10T18:32:01.937Z,95204.53
2022-08-10T18:34:29.647Z,95209.53
2022-08-10T18:36:57.064Z,95210.31
2022-08-10T18:39:29.599Z,95207.81
2022-08-10T18:42:09.849Z,95214.81
2022-08-10T18:44:41.058Z,95190.78
2022-08-10T18:47:17.880Z,95208.13
2022-08-10T18:49:58.937Z,95214.88
2022-08-10T18:52:29.761Z,95207.13
2022-08-10T18:55:14.447Z,95212.91
2022-08-10T18:57:57.780Z,95209.16
2022-08-10T19:00:41.245Z,95219.69
2022-08-10T19:03:22.891Z,95215.66
2022-08-10T19:06:09.348Z,95208.88
2022-08-10T19:09:09.622Z,95199.84
2022-08-10T19:12:31.175Z,95203.63
2022-08-10T19:15:17.003Z,95200.84
2022-08-10T19:18:04.053Z,95198.84
2022-08-10T19:20:36.425Z,95183.59
2022-08-10T19:23:06.059Z,95191.84
2022-08-10T19:26:38.051Z,95196.81
2022-08-10T19:28:53.226Z,95190.81
2022-08-10T19:31:43.940Z,95197.09
2022-08-10T19:34:37.419Z,95204.09
2022-08-10T19:37:15.402Z,95209.84
2022-08-10T19:39:59.373Z,95203.06
2022-08-10T19:42:39.237Z,95204.09
2022-08-10T19:46:01.531Z,95211.88
2022-08-10T19:48:42.603Z,95206.06
2022-08-10T19:51:49.082Z,95203.03
2022-08-10T19:54:30.949Z,95203.78
2022-08-10T19:57:27.740Z,95192.25
2022-08-10T20:00:18.649Z,95200.56
2022-08-10T20:02:55.658Z,95188.00
2022-08-10T20:06:15.339Z,95183.25
2022-08-10T20:09:01.356Z,95192.00
2022-08-10T20:11:50.749Z,95185.97
2022-08-10T20:14:22.211Z,95186.44
2022-08-10T20:16:51.626Z,95199.25
2022-08-10T20:19:52.839Z,95202.47
2022-08-10T20:22:28.979Z,95196.41
2022-08-10T20:25:16.682Z,95183.31
2022-08-10T20:28:06.848Z,95200.63
2022-08-10T20:30:37.755Z,95198.34
2022-08-10T20:33:17.362Z,95179.78
2022-08-10T20:35:50.230Z,95200.56
2022-08-10T20:38:29.015Z,95198.03
2022-08-10T20:41:11.228Z,95192.50
2022-08-10T20:43:53.650Z,95198.75
2022-08-10T20:46:27.849Z,95188.78
2022-08-10T20:48:54.619Z,95188.84
2022-08-10T20:51:26.317Z,95183.59
2022-08-10T20:54:15.403Z,95184.59
2022-08-10T20:57:55.282Z,95187.66
2022-08-10T21:00:14.180Z,95192.75
2022-08-10T21:02:47.935Z,95193.25
2022-08-10T21:05:25.399Z,95180.97
2022-08-10T21:08:08.833Z,95181.47
2022-08-10T21:10:57.832Z,95198.03
2022-08-10T21:13:36.131Z,95191.47
2022-08-10T21:16:14.776Z,95191.44
2022-08-10T21:19:00.442Z,95189.91
2022-08-10T21:22:04.191Z,95189.19
2022-08-10T21:24:48.393Z,95191.94
2022-08-10T21:27:37.454Z,95183.66
2022-08-10T21:30:09.720Z,95183.16
2022-08-10T21:32:59.332Z,95186.66
2022-08-10T21:35:37.494Z,95186.88
2022-08-10T21:38:26.806Z,95178.09
2022-08-10T21:41:18.005Z,95180.84
2022-08-10T21:44:16.529Z,95185.16
2022-08-10T21:47:11.508Z,95176.91
2022-08-10T21:50:24.710Z,95175.16
2022-08-10T21:53:19.317Z,95173.19
2022-08-10T21:56:22.408Z,95168.19
2022-08-10T21:59:38.425Z,95174.44
2022-08-10T22:02:28.022Z,95176.75
2022-08-10T22:05:18.561Z,95179.00
2022-08-10T22:08:12.079Z,95177.22
2022-08-10T22:11:06.610Z,95163.88
2022-08-10T22:13:56.292Z,95163.81
2022-08-10T22:17:01.092Z,95167.84
2022-08-10T22:19:51.384Z,95156.84
2022-08-10T22:22:45.178Z,95164.63
2022-08-10T22:26:06.993Z,95147.53
2022-08-10T22:29:03.575Z,95147.31
2022-08-10T22:32:15.495Z,95150.59
2022-08-10T22:35:10.658Z,95156.84
2022-08-10T23:01:01.031Z,95144.69
2022-08-10T23:03:30.403Z,95138.03
2022-08-10T23:06:11.571Z,95138.06
2022-08-10T23:08:46.972Z,95130.59
2022-08-10T23:11:22.451Z,95143.91
2022-08-10T23:13:57.476Z,95137.63
2022-08-10T23:16:47.522Z,95136.16
2022-08-10T23:19:20.601Z,95136.91
2022-08-10T23:22:05.035Z,95140.91
2022-08-10T23:24:34.932Z,95135.41
2022-08-10T23:27:12.037Z,95123.38
2022-08-10T23:29:43.652Z,95137.19
2022-08-10T23:32:32.929Z,95135.16
2022-08-10T23:36:05.634Z,95135.16
2022-08-10T23:37:57.454Z,95127.16
2022-08-10T23:40:25.832Z,95133.16
2022-08-10T23:42:53.284Z,95141.94
2022-08-10T23:45:26.846Z,95149.97
2022-08-10T23:47:58.412Z,95134.72
2022-08-10T23:50:28.175Z,95129.19
2022-08-10T23:53:02.559Z,95128.69
2022-08-10T23:55:49.068Z,95137.97
2022-08-10T23:58:33.443Z,95134.72
